Rushville, Illinois
Current Conditions -  °F | °C
As of 11:15 PM on Friday 28 Nov 2014 (Local Time) from KMQB Reporting Station
Clear Clear  
Wind Chill: 27°   Ceiling: Unl
Heat Index: 35°   Visibility: 10mi
Dew Point: 32°   Wind: 10mph
Humidity: 90%   Direction: 160°SSE
Pressure: 29.81"   Gusts: NA
Location:  40.12°N, 90.56°W
Report Text: KMQB 290515Z AUTO 16009KT 10SM CLR 02/00 A2981 RMK AO2 T00150000
Loading
Personal Weather Stations






























Interactive Weather Map New forecast layout! Learn more

10-Day Weather Forecast

Advertisements
Track Severe Weather on mobile